Time;durP1;ratioP1;P1;durP2;ratioP2;P2;SDS_P1;SDS_P2;PMS_P1;PMS_P2;Temp;Humidity;BMP_temperature;BMP_pressure;BME280_temperature;BME280_humidity;BME280_pressure;Samples;Min_cycle;Max_cycle;Signal;HPM_P1;HPM_P2
2022/04/25 00:00:41;;;;;;;45.10;25.48;;;;;;;7.84;88.71;98395.25;4989618;28;20053;-51
2022/04/25 00:03:06;;;;;;;39.72;25.95;;;;;;;7.87;88.23;98397.41;5001009;28;20038;-51
2022/04/25 00:05:32;;;;;;;40.97;25.25;;;;;;;7.94;88.92;98398.03;5003020;28;20043;-53
2022/04/25 00:07:57;;;;;;;37.60;26.13;;;;;;;7.87;90.20;98410.75;4995059;28;20026;-54
2022/04/25 00:10:23;;;;;;;49.65;27.98;;;;;;;7.66;93.13;98398.16;4993819;28;20508;-53
2022/04/25 00:12:48;;;;;;;41.70;26.50;;;;;;;7.39;95.29;98406.81;4995696;28;20405;-52
2022/04/25 00:15:14;;;;;;;45.53;26.58;;;;;;;7.16;97.14;98401.59;4993423;28;20034;-54
2022/04/25 00:17:39;;;;;;;47.00;28.50;;;;;;;7.24;97.19;98395.88;4993008;28;20787;-51
2022/04/25 00:20:06;;;;;;;45.40;28.52;;;;;;;7.23;96.12;98402.25;4999330;28;20038;-51
2022/04/25 00:22:31;;;;;;;43.05;26.55;;;;;;;7.30;94.62;98392.25;4999725;28;20026;-54
2022/04/25 00:24:57;;;;;;;49.42;28.52;;;;;;;7.36;93.83;98401.94;4989508;28;20041;-52
2022/04/25 00:27:23;;;;;;;47.15;28.02;;;;;;;7.45;94.15;98400.50;4998640;28;20053;-54
2022/04/25 00:29:48;;;;;;;45.10;28.17;;;;;;;7.46;94.84;98407.47;4994503;28;20419;-52
2022/04/25 00:32:14;;;;;;;43.78;27.27;;;;;;;7.45;95.38;98397.84;4998307;28;20049;-54
2022/04/25 00:34:39;;;;;;;47.75;29.13;;;;;;;7.27;97.62;98401.53;4993162;28;20034;-52
2022/04/25 00:37:05;;;;;;;44.97;28.15;;;;;;;7.33;97.63;98400.56;4988436;28;20043;-51
2022/04/25 00:39:30;;;;;;;41.45;27.27;;;;;;;7.41;97.08;98398.56;4991893;28;20462;-50
2022/04/25 00:41:57;;;;;;;45.70;28.92;;;;;;;7.46;96.66;98407.47;4987752;28;20092;-54
2022/04/25 00:44:22;;;;;;;45.75;27.20;;;;;;;7.57;96.97;98422.56;4994766;28;20033;-56
2022/04/25 00:46:48;;;;;;;42.88;26.55;;;;;;;7.58;96.34;98431.38;4992054;28;20042;-53
2022/04/25 00:49:14;;;;;;;46.17;28.88;;;;;;;7.52;96.46;98437.69;4977508;28;20520;-51
2022/04/25 00:51:40;;;;;;;38.28;26.02;;;;;;;7.42;97.05;98448.19;4996175;28;20034;-51
2022/04/25 00:54:06;;;;;;;45.00;29.48;;;;;;;7.40;98.18;98443.06;4986944;28;20550;-52
2022/04/25 00:56:31;;;;;;;46.70;30.30;;;;;;;7.45;98.42;98448.50;4987018;28;20046;-50
2022/04/25 00:58:56;;;;;;;46.45;29.30;;;;;;;7.46;98.33;98439.47;4998651;28;20421;-53
2022/04/25 01:01:23;;;;;;;49.83;30.77;;;;;;;7.46;98.38;98434.13;4992513;28;20709;-52
2022/04/25 01:03:49;;;;;;;49.45;30.60;;;;;;;7.54;98.09;98433.72;4988458;28;20473;-52
2022/04/25 01:06:15;;;;;;;51.58;32.60;;;;;;;7.63;98.24;98438.66;4987826;28;20085;-50
2022/04/25 01:08:40;;;;;;;42.33;27.75;;;;;;;7.70;96.27;98439.28;4995055;28;20097;-54
2022/04/25 01:11:06;;;;;;;48.47;28.60;;;;;;;7.67;96.95;98434.44;4996513;28;20053;-51
2022/04/25 01:13:32;;;;;;;51.50;31.02;;;;;;;7.57;99.01;98397.75;4994810;28;20368;-52
2022/04/25 01:15:57;;;;;;;62.80;38.03;;;;;;;7.25;100.00;98360.19;4991681;28;20038;-50
2022/04/25 01:18:23;;;;;;;22.00;14.02;;;;;;;8.19;83.68;98367.41;4995684;28;20181;-53
2022/04/25 01:20:49;;;;;;;19.67;14.18;;;;;;;8.32;81.79;98356.34;4994990;28;20041;-50
2022/04/25 01:28:50;;;;;;;17.15;11.40;;;;;;;8.28;80.84;98363.25;4994072;28;20518;-53
2022/04/25 01:31:15;;;;;;;17.77;12.32;;;;;;;8.19;81.35;98370.88;4996641;28;20069;-50
2022/04/25 01:33:41;;;;;;;20.83;13.95;;;;;;;8.22;81.05;98369.59;4987911;28;20469;-51
2022/04/25 01:36:06;;;;;;;27.88;17.67;;;;;;;7.78;88.60;98377.53;4994783;28;20046;-53
2022/04/25 01:38:31;;;;;;;28.10;17.00;;;;;;;7.61;90.66;98384.72;4992858;28;20035;-52
2022/04/25 01:40:57;;;;;;;27.27;16.60;;;;;;;7.48;92.16;98384.00;4987938;28;20047;-53
2022/04/25 01:43:22;;;;;;;28.00;15.90;;;;;;;7.48;90.08;98386.69;4991312;28;20042;-54
2022/04/25 01:45:48;;;;;;;27.50;16.30;;;;;;;7.45;89.65;98397.03;4987232;28;20089;-54
2022/04/25 01:48:13;;;;;;;25.02;16.77;;;;;;;7.47;90.94;98398.41;4992721;28;20044;-54
2022/04/25 01:50:38;;;;;;;30.60;17.92;;;;;;;7.46;94.29;98401.31;4994638;28;20058;-54
2022/04/25 01:53:04;;;;;;;34.05;20.52;;;;;;;7.42;94.70;98401.00;4990708;28;20037;-50
2022/04/25 01:55:29;;;;;;;34.35;21.30;;;;;;;7.38;95.00;98405.19;4996102;28;20046;-52
2022/04/25 01:57:55;;;;;;;30.80;19.55;;;;;;;7.39;96.52;98409.47;4993408;28;20034;-54
2022/04/25 02:00:21;;;;;;;31.15;20.67;;;;;;;7.33;96.19;98418.41;4992399;28;20477;-53
2022/04/25 02:02:46;;;;;;;32.53;20.98;;;;;;;7.34;96.86;98414.72;4991558;28;20038;-51
2022/04/25 02:05:11;;;;;;;32.17;20.65;;;;;;;7.28;97.60;98413.00;4995890;28;20033;-53
2022/04/25 02:07:37;;;;;;;33.60;21.98;;;;;;;7.29;98.81;98419.97;4991109;28;20029;-54
2022/04/25 02:10:03;;;;;;;36.65;21.83;;;;;;;7.18;98.39;98416.31;4998221;28;20042;-52
2022/04/25 02:12:28;;;;;;;34.88;21.85;;;;;;;7.12;99.86;98425.28;4993234;28;20026;-54
2022/04/25 02:14:54;;;;;;;34.75;20.65;;;;;;;7.10;100.00;98428.16;4994322;28;20100;-54
2022/04/25 02:17:19;;;;;;;34.15;21.63;;;;;;;7.15;100.00;98427.44;4992579;28;20440;-51
2022/04/25 02:19:45;;;;;;;38.45;22.85;;;;;;;7.10;100.00;98427.38;4987620;28;20542;-54
2022/04/25 02:22:11;;;;;;;35.80;22.38;;;;;;;7.08;100.00;98427.59;4986646;28;20497;-55
2022/04/25 02:24:37;;;;;;;48.38;28.23;;;;;;;7.09;100.00;98436.41;4992765;28;20117;-54
2022/04/25 02:27:04;;;;;;;53.30;31.48;;;;;;;7.11;100.00;98435.13;4987585;28;20050;-53
2022/04/25 02:29:32;;;;;;;57.65;33.35;;;;;;;7.18;100.00;98440.28;4994232;28;20030;-54
2022/04/25 02:31:59;;;;;;;61.50;33.83;;;;;;;7.19;100.00;98441.09;4993259;28;20631;-51
2022/04/25 02:34:25;;;;;;;60.75;34.40;;;;;;;7.12;100.00;98443.91;4987531;28;20117;-51
2022/04/25 02:36:50;;;;;;;63.58;34.33;;;;;;;7.17;100.00;98451.22;4992615;28;20039;-53
2022/04/25 02:39:16;;;;;;;55.33;32.70;;;;;;;7.17;100.00;98454.69;4987420;28;20030;-51
2022/04/25 02:41:41;;;;;;;58.13;33.20;;;;;;;7.15;100.00;98463.97;4992924;28;20038;-51
2022/04/25 02:44:06;;;;;;;67.10;35.72;;;;;;;7.08;100.00;98466.75;4989620;28;20396;-54
2022/04/25 02:46:32;;;;;;;62.70;37.35;;;;;;;7.17;100.00;98472.53;4994068;28;20473;-52
2022/04/25 02:48:57;;;;;;;78.00;39.88;;;;;;;7.27;100.00;98478.03;4992897;28;20026;-53
2022/04/25 02:51:23;;;;;;;73.07;40.45;;;;;;;7.31;100.00;98474.66;4992335;28;20050;-53
2022/04/25 02:53:48;;;;;;;75.40;38.63;;;;;;;7.34;100.00;98479.50;4970328;28;20053;-51
2022/04/25 02:56:14;;;;;;;67.28;37.90;;;;;;;7.25;100.00;98475.59;4987007;28;20043;-52
2022/04/25 02:58:39;;;;;;;72.10;39.20;;;;;;;7.25;100.00;98474.81;4994374;28;20034;-54
2022/04/25 03:01:05;;;;;;;68.03;40.55;;;;;;;7.14;100.00;98476.47;4992856;28;20065;-53
2022/04/25 03:03:35;;;;;;;73.93;40.90;;;;;;;7.11;100.00;98474.25;4992761;28;20046;-51
2022/04/25 03:06:01;;;;;;;81.65;42.97;;;;;;;7.13;100.00;98475.66;4995864;28;20046;-53
2022/04/25 03:08:27;;;;;;;70.15;39.78;;;;;;;7.20;100.00;98483.50;4993155;28;20050;-52
2022/04/25 03:10:52;;;;;;;73.32;40.85;;;;;;;7.29;100.00;98481.28;4988848;28;20050;-53
2022/04/25 03:13:18;;;;;;;72.03;41.15;;;;;;;7.30;100.00;98483.69;4991375;28;20037;-50
2022/04/25 03:15:44;;;;;;;67.47;38.22;;;;;;;7.31;100.00;98485.31;4991578;28;20120;-54
2022/04/25 03:18:11;;;;;;;66.10;38.00;;;;;;;7.33;100.00;98482.41;4997216;28;20611;-51
2022/04/25 03:20:37;;;;;;;69.78;39.05;;;;;;;7.46;100.00;98484.78;4991807;28;20053;-54
2022/04/25 03:23:02;;;;;;;73.32;39.55;;;;;;;7.37;100.00;98483.56;4998154;28;20025;-53
2022/04/25 03:25:28;;;;;;;64.05;36.88;;;;;;;7.36;100.00;98492.56;4991814;28;20419;-52
2022/04/25 03:27:54;;;;;;;61.92;37.30;;;;;;;7.31;100.00;98489.81;4991336;28;20457;-53
2022/04/25 03:30:21;;;;;;;54.60;33.53;;;;;;;7.40;100.00;98484.94;4989277;28;20046;-51
2022/04/25 03:32:47;;;;;;;67.97;36.08;;;;;;;7.29;100.00;98491.94;5020090;28;20153;-52
2022/04/25 03:35:13;;;;;;;47.58;28.45;;;;;;;7.26;100.00;98487.06;4992301;28;20049;-54
2022/04/25 03:37:39;;;;;;;40.70;23.67;;;;;;;6.98;100.00;98494.00;4990286;28;20109;-51
2022/04/25 03:40:05;;;;;;;38.38;20.70;;;;;;;6.97;100.00;98504.94;4989722;28;20048;-54
2022/04/25 03:42:31;;;;;;;31.92;19.42;;;;;;;6.79;100.00;98513.88;4994950;28;20030;-51
2022/04/25 03:44:56;;;;;;;33.13;20.27;;;;;;;6.72;100.00;98505.22;4996072;28;20525;-53
2022/04/25 03:47:22;;;;;;;30.67;19.13;;;;;;;6.84;100.00;98517.47;4995992;28;20569;-52
2022/04/25 03:49:47;;;;;;;28.25;17.45;;;;;;;6.75;100.00;98513.53;4986329;28;20030;-51
2022/04/25 03:52:13;;;;;;;22.27;14.27;;;;;;;6.72;100.00;98524.66;4995918;28;20050;-52
2022/04/25 03:57:23;;;;;;;19.48;11.85;;;;;;;6.30;100.00;98518.69;4989905;28;20050;-53
2022/04/25 03:59:48;;;;;;;19.77;12.10;;;;;;;6.30;100.00;98516.84;4996578;28;20039;-52
2022/04/25 04:02:14;;;;;;;19.20;9.73;;;;;;;6.14;100.00;98512.19;4973599;28;20038;-51
2022/04/25 04:04:39;;;;;;;15.27;9.85;;;;;;;6.10;100.00;98503.06;4996974;28;20030;-51
2022/04/25 04:07:05;;;;;;;14.52;9.27;;;;;;;6.08;100.00;98497.97;4995682;28;20499;-52
2022/04/25 04:09:45;;;;;;;20.25;11.43;;;;;;;6.03;100.00;98490.66;4996378;28;20030;-52
2022/04/25 04:12:11;;;;;;;22.48;12.30;;;;;;;6.01;100.00;98490.09;4991458;28;20045;-51
2022/04/25 04:14:37;;;;;;;25.48;12.63;;;;;;;6.00;100.00;98495.66;4999172;28;20527;-52
2022/04/25 04:17:08;;;;;;;22.23;12.80;;;;;;;6.03;100.00;98493.34;4993854;28;20046;-53
2022/04/25 04:19:35;;;;;;;19.98;11.25;;;;;;;5.94;100.00;98494.72;4992074;28;20034;-50
2022/04/25 04:22:02;;;;;;;19.65;11.80;;;;;;;5.93;100.00;98494.91;4988644;28;20045;-50
2022/04/25 04:24:28;;;;;;;23.15;12.75;;;;;;;6.00;100.00;98485.00;4988934;28;20393;-51
2022/04/25 04:26:53;;;;;;;18.13;11.02;;;;;;;5.97;100.00;98498.78;4987826;28;20049;-51
2022/04/25 04:29:19;;;;;;;16.70;10.27;;;;;;;5.93;100.00;98498.38;5000720;28;20038;-52
2022/04/25 04:31:46;;;;;;;21.38;12.05;;;;;;;5.96;100.00;98500.59;5001958;28;20062;-51
2022/04/25 04:34:12;;;;;;;19.05;11.18;;;;;;;5.97;100.00;98512.09;5002292;28;20491;-52
2022/04/25 04:36:37;;;;;;;21.13;12.80;;;;;;;5.98;100.00;98500.38;4988519;28;20057;-53
2022/04/25 04:39:03;;;;;;;24.55;13.52;;;;;;;6.08;100.00;98513.94;4991777;28;20042;-51
2022/04/25 04:41:28;;;;;;;20.00;12.30;;;;;;;6.07;100.00;98512.31;4991583;28;20077;-53
2022/04/25 04:43:57;;;;;;;19.42;12.50;;;;;;;6.00;100.00;98516.94;4999249;28;20481;-54
2022/04/25 04:46:23;;;;;;;22.63;11.88;;;;;;;6.00;100.00;98527.56;4995783;28;20049;-52
2022/04/25 04:48:48;;;;;;;22.77;12.18;;;;;;;5.97;100.00;98538.69;4997537;28;20538;-51
2022/04/25 04:51:14;;;;;;;24.85;13.38;;;;;;;6.04;100.00;98539.34;5000353;28;20048;-52
2022/04/25 04:53:39;;;;;;;23.42;13.30;;;;;;;6.02;100.00;98544.94;4994282;28;20026;-52
2022/04/25 04:56:05;;;;;;;23.13;12.68;;;;;;;6.04;100.00;98540.19;4994587;28;20499;-54
2022/04/25 04:58:30;;;;;;;21.55;13.30;;;;;;;6.16;100.00;98547.38;4991223;28;20075;-51
2022/04/25 05:00:56;;;;;;;23.85;12.90;;;;;;;6.08;100.00;98561.81;4998198;28;20648;-51
2022/04/25 05:03:25;;;;;;;23.27;12.82;;;;;;;6.17;100.00;98570.28;4988613;28;20492;-52
2022/04/25 05:05:51;;;;;;;27.63;12.95;;;;;;;6.17;100.00;98570.28;4992860;28;20042;-50
2022/04/25 05:08:17;;;;;;;22.55;12.93;;;;;;;6.07;100.00;98576.16;4995415;28;20030;-53
2022/04/25 05:10:43;;;;;;;20.67;12.73;;;;;;;6.07;100.00;98581.50;4991768;28;20638;-52
2022/04/25 05:13:08;;;;;;;25.25;13.70;;;;;;;6.21;100.00;98587.41;4988194;28;20038;-54
2022/04/25 05:15:35;;;;;;;26.02;14.55;;;;;;;6.22;100.00;98584.50;4989019;28;20034;-51
2022/04/25 05:18:01;;;;;;;27.90;14.15;;;;;;;6.00;100.00;98589.56;4994539;28;20342;-53
2022/04/25 05:20:26;;;;;;;19.02;11.32;;;;;;;6.08;100.00;98598.25;4988668;28;20050;-54
2022/04/25 05:22:52;;;;;;;20.52;11.77;;;;;;;6.04;100.00;98596.06;4993422;28;20516;-53
2022/04/25 05:25:19;;;;;;;20.08;11.68;;;;;;;6.10;100.00;98602.31;4995591;28;20377;-53
2022/04/25 05:27:48;;;;;;;26.20;12.93;;;;;;;6.19;100.00;98611.59;4988438;28;20025;-54
2022/04/25 05:30:14;;;;;;;22.55;12.55;;;;;;;6.28;100.00;98603.25;4994404;28;20068;-54
2022/04/25 05:32:47;;;;;;;20.67;11.23;;;;;;;6.39;100.00;98610.44;4995365;28;20338;-54
2022/04/25 05:35:14;;;;;;;19.58;11.77;;;;;;;6.36;100.00;98616.22;4987367;28;20113;-54
2022/04/25 05:37:39;;;;;;;19.92;11.45;;;;;;;6.26;100.00;98617.63;4994679;28;20103;-53
2022/04/25 05:40:07;;;;;;;24.70;12.00;;;;;;;6.29;100.00;98620.84;4988180;28;20767;-54
2022/04/25 05:42:33;;;;;;;20.58;11.98;;;;;;;6.18;100.00;98620.59;4988205;28;20088;-52
2022/04/25 05:45:04;;;;;;;24.25;13.05;;;;;;;6.04;100.00;98614.69;4955241;28;20052;-52
2022/04/25 05:47:29;;;;;;;;;;;;;;;6.01;100.00;98614.31;4988469;28;20129;-54
2022/04/25 05:52:39;;;;;;;27.92;13.65;;;;;;;5.97;100.00;98605.19;4991750;28;20216;-54
2022/04/25 05:55:04;;;;;;;26.27;13.48;;;;;;;5.78;100.00;98604.41;4992753;28;20037;-54
2022/04/25 05:57:30;;;;;;;32.20;15.60;;;;;;;5.92;100.00;98603.16;4992805;28;20518;-53
2022/04/25 05:59:55;;;;;;;29.40;15.90;;;;;;;5.83;100.00;98604.53;4988001;28;20042;-53
2022/04/25 06:02:21;;;;;;;25.92;15.43;;;;;;;5.77;100.00;98614.22;4986038;28;20042;-53
2022/04/25 06:04:46;;;;;;;30.17;15.98;;;;;;;5.83;100.00;98602.66;4992378;28;20038;-52
2022/04/25 06:07:12;;;;;;;24.33;14.98;;;;;;;5.89;100.00;98600.13;4990641;28;20034;-53
2022/04/25 06:09:37;;;;;;;25.20;15.65;;;;;;;5.87;100.00;98596.91;4995812;28;20491;-52
2022/04/25 06:12:03;;;;;;;31.05;17.05;;;;;;;5.92;100.00;98589.06;4999409;28;20073;-54
2022/04/25 06:14:31;;;;;;;24.23;13.45;;;;;;;6.08;100.00;98588.41;4995135;28;20030;-54
2022/04/25 06:16:59;;;;;;;23.15;14.35;;;;;;;6.14;100.00;98584.84;4988708;28;20072;-54
2022/04/25 06:19:24;;;;;;;22.55;14.23;;;;;;;6.22;100.00;98589.03;4990076;28;20041;-54
2022/04/25 06:21:50;;;;;;;23.70;13.95;;;;;;;6.08;100.00;98582.28;4993654;28;20038;-51
2022/04/25 06:24:15;;;;;;;20.23;13.40;;;;;;;6.08;100.00;98580.44;4991545;28;20034;-52
2022/04/25 06:26:41;;;;;;;18.60;12.00;;;;;;;6.00;100.00;98584.25;4992633;28;20038;-53
2022/04/25 06:29:06;;;;;;;19.50;10.98;;;;;;;6.08;100.00;98590.28;4990577;28;20050;-53
2022/04/25 06:31:32;;;;;;;16.10;10.10;;;;;;;6.28;100.00;98593.44;4987280;28;20042;-52
2022/04/25 06:33:58;;;;;;;17.27;10.40;;;;;;;6.42;100.00;98600.16;4985883;28;20026;-51
2022/04/25 06:36:23;;;;;;;17.35;10.30;;;;;;;6.47;100.00;98597.63;4991922;28;20112;-53
2022/04/25 06:38:49;;;;;;;17.38;10.57;;;;;;;6.58;100.00;98603.16;4993909;28;20038;-53
2022/04/25 06:41:14;;;;;;;14.85;9.93;;;;;;;6.93;99.66;98605.81;4987734;28;20041;-52
2022/04/25 06:43:40;;;;;;;15.68;8.88;;;;;;;7.09;96.71;98604.28;4996908;28;20037;-54
2022/04/25 06:46:06;;;;;;;15.48;9.50;;;;;;;7.20;96.00;98599.97;5000816;28;20064;-54
2022/04/25 06:48:31;;;;;;;14.13;8.80;;;;;;;7.01;94.94;98616.09;4996384;28;20022;-52
2022/04/25 06:50:57;;;;;;;13.90;9.20;;;;;;;7.39;94.96;98605.94;4999483;28;20111;-54
2022/04/25 06:53:22;;;;;;;14.15;9.18;;;;;;;7.76;92.70;98612.53;4993643;28;20033;-54
2022/04/25 06:55:48;;;;;;;13.95;8.20;;;;;;;7.97;88.38;98611.03;4999557;28;20393;-51
2022/04/25 06:58:13;;;;;;;12.88;8.20;;;;;;;8.88;86.54;98618.06;4995556;28;20038;-51
2022/04/25 07:00:39;;;;;;;12.10;7.40;;;;;;;9.67;82.08;98619.59;4996165;28;20094;-51
2022/04/25 07:03:04;;;;;;;11.52;7.13;;;;;;;9.81;79.47;98620.00;4996341;28;20037;-53
2022/04/25 07:05:30;;;;;;;12.88;7.40;;;;;;;10.88;78.16;98618.22;4993793;28;20137;-51
2022/04/25 07:07:55;;;;;;;8.50;5.90;;;;;;;11.31;72.52;98616.31;5001789;28;20036;-52
2022/04/25 07:10:21;;;;;;;8.02;5.88;;;;;;;9.84;75.86;98617.63;4987701;28;20467;-54
2022/04/25 07:12:46;;;;;;;9.73;6.10;;;;;;;9.93;78.92;98620.66;5000344;28;20032;-53
2022/04/25 07:15:12;;;;;;;12.15;6.32;;;;;;;10.50;77.12;98620.09;4991500;28;20093;-54
2022/04/25 07:17:37;;;;;;;10.68;5.97;;;;;;;10.26;77.30;98619.63;4989983;28;20096;-52
2022/04/25 07:20:03;;;;;;;9.95;6.78;;;;;;;10.05;78.90;98626.66;4994940;28;20106;-53
2022/04/25 07:30:40;;;;;;;12.23;5.93;;;;;;;10.82;75.05;98613.09;4993470;28;20116;-54
2022/04/25 07:33:06;;;;;;;11.55;7.22;;;;;;;13.30;70.51;98620.16;4997657;28;20481;-54
2022/04/25 07:35:31;;;;;;;12.18;6.25;;;;;;;13.72;65.97;98616.22;4995446;28;20050;-53
2022/04/25 07:37:57;;;;;;;8.32;6.25;;;;;;;15.69;59.78;98626.56;4993383;28;20598;-52
2022/04/25 07:40:23;;;;;;;10.70;5.82;;;;;;;16.85;56.03;98633.22;4996953;28;20100;-53
2022/04/25 07:42:48;;;;;;;10.18;6.30;;;;;;;15.77;61.40;98627.81;4993440;28;20029;-52
2022/04/25 07:45:14;;;;;;;10.30;5.63;;;;;;;16.74;58.13;98637.16;4990017;28;20069;-51
2022/04/25 07:47:43;;;;;;;6.53;5.10;;;;;;;15.48;54.94;98634.91;4994635;28;20736;-53
2022/04/25 07:50:12;;;;;;;6.82;4.90;;;;;;;13.55;60.92;98644.31;4994609;28;20035;-52
2022/04/25 07:52:37;;;;;;;6.30;4.75;;;;;;;12.87;64.40;98636.66;5002273;28;20030;-51
2022/04/25 07:55:03;;;;;;;9.38;6.20;;;;;;;13.05;69.42;98635.28;4991390;28;20048;-51
2022/04/25 07:57:29;;;;;;;9.77;6.68;;;;;;;13.99;65.53;98634.63;4991999;28;20470;-53
2022/04/25 07:59:54;;;;;;;10.10;6.25;;;;;;;16.61;58.72;98639.53;4993640;28;20027;-53
2022/04/25 08:02:20;;;;;;;7.28;5.47;;;;;;;16.46;60.93;98642.47;4987749;28;20043;-52
2022/04/25 08:04:45;;;;;;;7.68;5.32;;;;;;;15.99;55.57;98646.97;4994447;28;20392;-54
2022/04/25 08:07:14;;;;;;;10.73;6.00;;;;;;;13.90;64.47;98647.88;4998039;28;20060;-53
2022/04/25 08:09:39;;;;;;;6.68;4.88;;;;;;;12.86;64.99;98647.72;4999230;28;20022;-54
2022/04/25 08:20:17;;;;;;;7.00;5.60;;;;;;;11.91;71.34;98658.94;4993470;28;20036;-54
2022/04/25 08:22:42;;;;;;;8.07;5.28;;;;;;;11.38;72.20;98657.13;4998018;28;20030;-55
2022/04/25 08:25:10;;;;;;;11.93;6.40;;;;;;;11.14;75.16;98662.09;4996216;28;20092;-54
2022/04/25 08:27:35;;;;;;;10.60;6.30;;;;;;;11.23;77.17;98678.47;4987838;28;20049;-51
2022/04/25 08:30:01;;;;;;;9.55;6.68;;;;;;;11.59;74.72;98668.75;4992645;28;20034;-54
2022/04/25 08:32:26;;;;;;;11.50;6.90;;;;;;;11.64;73.79;98670.63;4989234;28;20045;-54
2022/04/25 08:34:51;;;;;;;9.32;6.47;;;;;;;12.84;69.73;98677.56;4999841;28;20405;-55
2022/04/25 08:37:17;;;;;;;13.43;6.68;;;;;;;11.53;72.66;98674.34;4987803;28;20430;-55
2022/04/25 08:39:42;;;;;;;9.23;6.00;;;;;;;11.44;73.55;98677.53;4994841;28;20639;-52
2022/04/25 08:42:09;;;;;;;9.55;7.30;;;;;;;10.71;77.11;98684.59;4994596;28;20343;-55
2022/04/25 08:44:34;;;;;;;10.35;7.47;;;;;;;9.55;79.62;98680.44;4988945;28;20031;-54
2022/04/25 08:47:00;;;;;;;14.45;7.13;;;;;;;10.58;80.04;98686.63;4992446;28;20555;-55
2022/04/25 08:49:25;;;;;;;11.02;7.00;;;;;;;11.91;77.31;98678.53;4997109;28;20556;-54
2022/04/25 08:51:58;;;;;;;11.38;6.53;;;;;;;11.64;75.07;98686.75;4989595;28;20374;-54
2022/04/25 08:54:24;;;;;;;10.88;7.38;;;;;;;11.79;76.49;98691.38;4993287;28;20045;-55
2022/04/25 08:56:50;;;;;;;9.55;7.15;;;;;;;11.82;75.95;98678.22;4995732;28;20585;-55
2022/04/25 08:59:15;;;;;;;10.75;7.38;;;;;;;11.53;77.60;98690.44;4977350;28;20038;-53
2022/04/25 09:01:41;;;;;;;12.27;7.78;;;;;;;11.01;77.28;98684.81;4989361;28;20048;-52
2022/04/25 09:04:06;;;;;;;11.30;7.60;;;;;;;10.40;79.79;98684.31;4990978;28;20042;-51
2022/04/25 09:06:31;;;;;;;10.88;8.10;;;;;;;10.77;80.54;98686.25;4988417;28;20141;-52
2022/04/25 09:08:57;;;;;;;14.48;8.27;;;;;;;10.55;80.14;98697.03;4993408;28;20100;-52
2022/04/25 09:14:09;;;;;;;12.82;8.55;;;;;;;10.57;79.47;98690.38;4992099;28;20036;-55
2022/04/25 09:16:34;;;;;;;10.48;8.20;;;;;;;10.71;81.74;98698.81;4993312;28;20063;-51
2022/04/25 09:19:00;;;;;;;13.48;8.45;;;;;;;10.48;83.21;98697.28;4989028;28;20033;-55
2022/04/25 09:21:25;;;;;;;17.15;9.00;;;;;;;10.44;81.84;98696.16;4985729;28;20389;-54
2022/04/25 09:23:51;;;;;;;12.52;7.93;;;;;;;10.38;80.22;98707.06;4991889;28;20031;-53
2022/04/25 09:26:20;;;;;;;12.27;8.00;;;;;;;10.66;79.88;98706.81;4991588;28;20038;-54
2022/04/25 09:28:49;;;;;;;13.50;8.32;;;;;;;11.01;79.55;98711.63;4997479;28;20080;-53
2022/04/25 09:31:16;;;;;;;12.38;8.38;;;;;;;11.34;81.24;98712.34;4996758;28;20050;-52
2022/04/25 09:33:41;;;;;;;14.52;8.68;;;;;;;11.45;80.56;98708.66;4994084;28;20061;-52
2022/04/25 09:36:07;;;;;;;13.30;8.05;;;;;;;11.35;78.09;98711.28;4991164;28;20038;-55
2022/04/25 09:38:34;;;;;;;16.17;9.07;;;;;;;11.67;78.28;98705.00;4990473;28;20042;-53
2022/04/25 09:41:00;;;;;;;11.82;9.00;;;;;;;12.08;77.18;98702.47;4998835;28;20046;-54
2022/04/25 09:43:33;;;;;;;12.93;9.38;;;;;;;11.81;76.77;98722.25;4990641;28;21063;-53
2022/04/25 09:46:08;;;;;;;14.25;9.77;;;;;;;10.88;79.51;98717.41;4979877;28;20050;-55
2022/04/25 09:48:35;;;;;;;13.82;10.65;;;;;;;11.15;80.32;98717.31;4997845;28;20084;-55
2022/04/25 09:51:07;;;;;;;14.38;9.45;;;;;;;11.58;79.30;98719.97;4992943;28;20042;-54
2022/04/25 09:54:01;;;;;;;14.77;9.85;;;;;;;10.69;81.59;98725.03;4986791;28;20034;-52
2022/04/25 09:56:29;;;;;;;16.95;12.40;;;;;;;10.09;83.28;98715.34;4994380;28;20065;-54
2022/04/25 09:59:00;;;;;;;19.30;11.55;;;;;;;10.42;83.81;98718.91;4994678;28;20033;-55
2022/04/25 10:01:26;;;;;;;18.85;11.25;;;;;;;10.50;82.56;98727.28;4994540;28;20037;-55
2022/04/25 10:03:51;;;;;;;18.27;11.45;;;;;;;10.14;82.70;98732.25;4994227;28;20042;-55
2022/04/25 10:06:17;;;;;;;21.27;13.23;;;;;;;9.59;84.46;98721.72;4993065;28;20050;-52
2022/04/25 10:08:42;;;;;;;19.45;13.73;;;;;;;9.64;86.15;98727.13;4974384;28;20038;-53
2022/04/25 10:11:08;;;;;;;21.83;13.18;;;;;;;10.01;84.60;98735.34;4989679;28;20524;-52
2022/04/25 10:13:34;;;;;;;20.02;12.05;;;;;;;10.25;82.79;98737.72;4970311;28;20117;-51
2022/04/25 10:16:00;;;;;;;19.35;13.50;;;;;;;10.69;83.14;98729.59;4991835;28;20073;-54
2022/04/25 10:18:26;;;;;;;17.48;13.05;;;;;;;10.76;81.02;98731.00;4989157;28;20037;-54
2022/04/25 10:20:51;;;;;;;17.38;11.75;;;;;;;10.27;81.93;98728.38;4992178;28;20052;-52
2022/04/25 10:23:17;;;;;;;22.58;12.68;;;;;;;10.93;80.44;98732.72;4989390;28;20034;-52
2022/04/25 10:26:01;;;;;;;16.20;12.38;;;;;;;10.37;79.95;98727.69;4991651;28;20447;-52
2022/04/25 10:28:37;;;;;;;16.65;11.82;;;;;;;10.88;79.37;98728.13;4990688;28;20026;-52
2022/04/25 10:31:05;;;;;;;21.92;12.63;;;;;;;10.94;78.66;98720.94;4984479;28;161200;-53
2022/04/25 10:34:00;;;;;;;22.75;13.80;;;;;;;11.05;77.89;98727.19;4973664;28;20096;-51
2022/04/25 10:36:38;;;;;;;19.45;13.10;;;;;;;10.62;80.00;98729.00;4987723;28;20034;-53
2022/04/25 10:39:18;;;;;;;18.13;12.68;;;;;;;11.97;78.64;98719.66;4991872;28;20071;-55
2022/04/25 10:44:37;;;;;;;19.38;11.40;;;;;;;13.42;72.16;98725.63;4991958;28;20052;-52
2022/04/25 10:47:05;;;;;;;18.67;11.68;;;;;;;13.88;70.34;98730.06;4986015;28;20035;-51
2022/04/25 10:49:33;;;;;;;17.80;12.88;;;;;;;12.36;71.33;98724.59;4994203;28;20048;-53
2022/04/25 10:51:59;;;;;;;17.67;12.93;;;;;;;12.66;71.13;98724.63;4982305;28;20042;-53
2022/04/25 10:54:28;;;;;;;19.83;12.07;;;;;;;13.56;67.99;98725.88;4991739;28;20445;-53
2022/04/25 10:57:20;;;;;;;18.08;11.55;;;;;;;13.14;66.07;98724.31;4995819;28;20077;-53
2022/04/25 10:59:45;;;;;;;20.55;12.60;;;;;;;13.50;67.18;98721.56;4988231;28;20049;-55
2022/04/25 11:02:27;;;;;;;21.45;12.45;;;;;;;15.53;64.22;98717.78;4996230;28;20045;-53
2022/04/25 11:05:11;;;;;;;17.92;12.63;;;;;;;16.46;59.84;98723.63;4988112;28;20038;-52
2022/04/25 11:07:40;;;;;;;18.45;12.60;;;;;;;15.83;59.28;98727.44;4985983;28;20053;-52
2022/04/25 11:10:06;;;;;;;16.70;12.17;;;;;;;14.87;63.18;98720.00;4991972;28;20045;-52
2022/04/25 11:12:56;;;;;;;17.10;12.35;;;;;;;14.54;63.01;98716.25;4992417;28;20030;-53
2022/04/25 11:15:41;;;;;;;21.42;13.88;;;;;;;13.27;66.90;98717.59;4991784;28;20135;-50
2022/04/25 11:18:34;;;;;;;18.52;13.82;;;;;;;13.77;65.74;98716.63;4994144;28;20054;-53
2022/04/25 11:21:07;;;;;;;16.83;13.15;;;;;;;13.53;64.44;98721.84;4995635;28;20463;-54
2022/04/25 11:23:47;;;;;;;23.15;14.35;;;;;;;13.37;68.53;98717.56;4993116;28;20026;-52
2022/04/25 11:26:18;;;;;;;;;;;;;;;12.79;69.55;98720.56;4994845;28;20096;-50
2022/04/25 11:29:01;;;;;;;24.38;14.43;;;;;;;12.91;69.33;98729.19;4998632;28;19926;-50
2022/04/25 11:31:30;;;;;;;20.27;14.70;;;;;;;12.82;70.48;98721.94;4995914;28;20058;-50
2022/04/25 11:33:57;;;;;;;19.20;12.50;;;;;;;11.31;74.32;98718.25;4994051;28;20026;-51
2022/04/25 11:36:23;;;;;;;28.42;15.27;;;;;;;11.96;73.22;98726.09;4994390;28;20432;-53
2022/04/25 11:41:36;;;;;;;26.20;16.17;;;;;;;12.32;72.98;98728.88;4992054;28;20046;-53
2022/04/25 11:44:02;;;;;;;21.38;15.15;;;;;;;12.48;71.31;98733.19;4978697;28;20397;-52
2022/04/25 11:46:28;;;;;;;24.63;15.98;;;;;;;11.93;72.91;98735.50;4989677;28;20038;-50
2022/04/25 11:48:54;;;;;;;23.38;16.65;;;;;;;12.21;73.72;98726.16;4994472;28;20114;-50
2022/04/25 11:51:28;;;;;;;21.73;15.43;;;;;;;12.49;71.42;98729.44;4992131;28;20420;-51
2022/04/25 11:53:54;;;;;;;21.73;15.38;;;;;;;12.73;70.85;98735.13;4989339;28;20085;-53
2022/04/25 11:56:21;;;;;;;19.52;14.45;;;;;;;12.41;70.87;98740.72;4998913;28;20484;-53